Time;durP1;ratioP1;P1;durP2;ratioP2;P2;SDS_P1;SDS_P2;PMS_P1;PMS_P2;Temp;Humidity;BMP_temperature;BMP_pressure;BME280_temperature;BME280_humidity;BME280_pressure;Samples;Min_cycle;Max_cycle;Signal;HPM_P1;HPM_P2
2022/08/06 00:02:20;;;;;;;1.80;1.70;;;24.30;99.90;;;;;;5049401;28;20277;-74
2022/08/06 00:04:48;;;;;;;1.80;1.70;;;24.10;99.90;;;;;;5050889;28;21008;-75
2022/08/06 00:07:16;;;;;;;1.52;1.42;;;24.00;99.90;;;;;;5048623;28;20306;-76
2022/08/06 00:09:43;;;;;;;1.95;1.52;;;24.00;99.90;;;;;;5051293;28;20676;-76
2022/08/06 00:12:10;;;;;;;2.00;1.40;;;24.00;99.90;;;;;;5048707;28;20227;-76
2022/08/06 00:14:38;;;;;;;2.10;2.00;;;24.00;99.90;;;;;;5054988;28;20206;-75
2022/08/06 00:17:05;;;;;;;2.83;1.67;;;24.00;99.90;;;;;;5051532;28;20195;-75
2022/08/06 00:19:32;;;;;;;1.77;1.67;;;24.00;99.90;;;;;;5051292;28;20628;-75
2022/08/06 00:22:01;;;;;;;1.63;1.52;;;24.00;99.90;;;;;;5054957;28;20711;-76
2022/08/06 00:24:28;;;;;;;1.50;1.40;;;24.00;99.90;;;;;;5055398;28;20209;-75
2022/08/06 00:26:55;;;;;;;1.70;1.60;;;24.00;99.90;;;;;;5055427;28;20218;-75
2022/08/06 00:29:23;;;;;;;1.70;1.60;;;24.00;99.90;;;;;;5054476;28;20551;-75
2022/08/06 00:31:50;;;;;;;1.88;1.77;;;23.90;99.90;;;;;;5053766;28;20225;-76
2022/08/06 00:34:17;;;;;;;2.13;1.70;;;24.00;99.90;;;;;;5050395;28;20640;-74
2022/08/06 00:36:44;;;;;;;2.00;1.90;;;23.90;99.90;;;;;;5051534;28;20645;-76
2022/08/06 00:39:13;;;;;;;1.83;1.73;;;24.00;99.90;;;;;;5053507;28;20215;-74
2022/08/06 00:41:40;;;;;;;2.33;1.73;;;24.00;99.90;;;;;;5050393;28;20215;-75
2022/08/06 00:44:07;;;;;;;2.17;2.00;;;24.00;99.90;;;;;;5049605;28;20241;-75
2022/08/06 00:46:34;;;;;;;1.85;1.70;;;24.00;99.90;;;;;;5053152;28;20310;-74
2022/08/06 00:49:02;;;;;;;2.50;1.92;;;23.90;99.90;;;;;;5051521;28;20224;-75
2022/08/06 00:51:29;;;;;;;1.95;1.75;;;23.90;99.90;;;;;;5051062;28;20269;-76
2022/08/06 00:53:56;;;;;;;2.33;2.15;;;23.80;99.90;;;;;;5053470;28;20221;-76
2022/08/06 00:56:24;;;;;;;1.90;1.80;;;23.70;99.90;;;;;;5057904;28;20189;-76
2022/08/06 00:58:51;;;;;;;2.15;1.95;;;23.70;99.90;;;;;;5051817;28;20214;-76
2022/08/06 01:01:19;;;;;;;1.80;1.70;;;23.70;99.90;;;;;;5051407;28;20218;-76
2022/08/06 01:03:46;;;;;;;1.90;1.80;;;23.70;99.90;;;;;;5051646;28;20516;-76
2022/08/06 01:06:13;;;;;;;1.80;1.70;;;23.70;99.90;;;;;;5050567;28;20222;-75
2022/08/06 01:08:40;;;;;;;2.53;1.70;;;23.60;99.90;;;;;;5050870;28;20295;-76
2022/08/06 01:11:07;;;;;;;1.90;1.80;;;23.50;99.90;;;;;;5051977;28;20187;-76
2022/08/06 01:13:36;;;;;;;2.05;1.80;;;23.50;99.90;;;;;;5051499;28;20222;-76
2022/08/06 01:16:10;;;;;;;3.60;1.83;;;23.50;99.90;;;;;;5055263;28;20191;-77
2022/08/06 01:18:46;;;;;;;2.28;2.05;;;23.60;99.90;;;;;;5050345;28;20305;-76
2022/08/06 01:21:31;;;;;;;2.40;2.20;;;23.50;99.90;;;;;;5049109;28;20245;-76
2022/08/06 01:24:22;;;;;;;2.05;1.90;;;23.10;99.90;;;;;;5048344;28;20223;-76
2022/08/06 01:26:54;;;;;;;2.55;1.80;;;22.90;99.90;;;;;;5038694;28;20225;-75
2022/08/06 01:29:27;;;;;;;2.28;1.73;;;22.90;99.90;;;;;;5049248;28;20253;-76
2022/08/06 01:32:01;;;;;;;2.30;2.10;;;23.00;99.90;;;;;;5045707;28;20207;-76
2022/08/06 01:34:34;;;;;;;2.13;2.03;;;23.20;99.90;;;;;;5047504;28;20202;-76
2022/08/06 01:37:10;;;;;;;1.98;1.88;;;23.30;99.90;;;;;;5050728;28;20191;-76
2022/08/06 01:39:40;;;;;;;1.85;1.75;;;23.10;99.90;;;;;;5049878;28;20202;-76
2022/08/06 01:42:08;;;;;;;1.60;1.50;;;23.00;99.90;;;;;;5052629;28;20726;-76
2022/08/06 01:44:40;;;;;;;2.17;1.85;;;23.00;99.90;;;;;;5052378;28;21152;-76
2022/08/06 01:47:11;;;;;;;2.03;1.90;;;23.00;99.90;;;;;;5056843;28;20241;-76
2022/08/06 01:49:41;;;;;;;1.95;1.85;;;23.10;99.90;;;;;;5052122;28;20211;-76
2022/08/06 01:52:11;;;;;;;2.00;1.80;;;23.20;99.90;;;;;;5053398;28;20226;-75
2022/08/06 01:54:42;;;;;;;2.22;2.00;;;23.20;99.90;;;;;;5051970;28;20203;-76
2022/08/06 01:57:11;;;;;;;2.28;1.88;;;23.20;99.90;;;;;;5056405;28;20215;-76
2022/08/06 01:59:45;;;;;;;2.20;2.10;;;23.30;99.90;;;;;;5052033;28;20831;-76
2022/08/06 02:02:17;;;;;;;1.98;1.70;;;23.30;99.90;;;;;;5050444;28;20226;-77
2022/08/06 02:04:47;;;;;;;2.30;2.10;;;23.30;99.90;;;;;;5052618;28;20217;-76
2022/08/06 02:07:17;;;;;;;2.10;1.90;;;23.30;99.90;;;;;;5057414;28;20284;-77
2022/08/06 02:09:48;;;;;;;1.90;1.80;;;23.40;99.90;;;;;;5056315;28;20187;-76
2022/08/06 02:12:20;;;;;;;1.77;1.52;;;23.40;99.90;;;;;;5056081;28;20221;-76
2022/08/06 02:14:52;;;;;;;1.88;1.65;;;23.40;99.90;;;;;;5053608;28;20187;-75
2022/08/06 02:17:24;;;;;;;2.00;1.80;;;23.40;99.90;;;;;;5047382;28;20618;-74
2022/08/06 02:19:53;;;;;;;2.13;1.60;;;23.40;99.90;;;;;;5048412;28;20855;-76
2022/08/06 02:22:22;;;;;;;1.83;1.73;;;23.40;99.90;;;;;;5044272;28;20237;-76
2022/08/06 02:24:50;;;;;;;1.80;1.70;;;23.30;99.90;;;;;;5047761;28;20191;-75
2022/08/06 02:27:19;;;;;;;2.00;1.90;;;23.30;99.90;;;;;;5046552;28;20234;-74
2022/08/06 02:29:49;;;;;;;1.70;1.60;;;23.30;99.90;;;;;;5050614;28;20580;-76
2022/08/06 02:32:17;;;;;;;1.90;1.80;;;23.30;99.90;;;;;;5051269;28;20720;-77
2022/08/06 02:34:44;;;;;;;1.92;1.83;;;23.30;99.90;;;;;;5051805;28;20191;-75
2022/08/06 02:37:18;;;;;;;1.90;1.80;;;23.20;99.90;;;;;;5045266;28;20219;-75
2022/08/06 02:39:50;;;;;;;1.88;1.77;;;23.10;99.90;;;;;;5050478;28;20210;-75
2022/08/06 02:42:22;;;;;;;2.13;2.03;;;23.10;99.90;;;;;;5048436;28;20218;-74
2022/08/06 02:45:00;;;;;;;2.20;2.00;;;23.10;99.90;;;;;;5050636;28;20205;-76
2022/08/06 02:47:34;;;;;;;1.70;1.60;;;23.10;99.90;;;;;;5043661;28;20220;-77
2022/08/06 02:50:04;;;;;;;1.50;1.40;;;23.10;99.90;;;;;;5049103;28;20198;-76
2022/08/06 02:52:38;;;;;;;2.25;1.55;;;23.10;99.90;;;;;;5050069;28;20241;-76
2022/08/06 02:55:11;;;;;;;1.88;1.77;;;23.10;99.90;;;;;;5050464;28;20576;-74
2022/08/06 02:57:41;;;;;;;1.90;1.80;;;23.10;99.90;;;;;;5045853;28;20484;-76
2022/08/06 03:00:10;;;;;;;1.60;1.50;;;23.00;99.90;;;;;;5049401;28;20749;-76
2022/08/06 03:02:41;;;;;;;1.80;1.70;;;22.90;99.90;;;;;;5048509;28;20235;-75
2022/08/06 03:05:14;;;;;;;1.73;1.63;;;22.90;99.90;;;;;;5048948;28;20207;-75
2022/08/06 03:07:42;;;;;;;1.77;1.67;;;23.00;99.90;;;;;;5046587;28;20223;-76
2022/08/06 03:10:12;;;;;;;2.25;2.15;;;23.00;99.90;;;;;;5047477;28;20225;-75
2022/08/06 03:12:40;;;;;;;1.75;1.65;;;22.90;99.90;;;;;;5043271;28;20222;-77
2022/08/06 03:15:11;;;;;;;1.80;1.70;;;22.90;99.90;;;;;;5047654;28;20198;-76
2022/08/06 03:17:41;;;;;;;2.05;1.80;;;22.90;99.90;;;;;;5050482;28;21009;-76
2022/08/06 03:20:10;;;;;;;1.92;1.83;;;22.90;99.90;;;;;;5046348;28;20206;-75
2022/08/06 03:22:39;;;;;;;1.60;1.50;;;22.90;99.90;;;;;;5051745;28;20288;-76
2022/08/06 03:25:08;;;;;;;1.90;1.80;;;22.90;99.90;;;;;;5048735;28;20199;-76
2022/08/06 03:27:37;;;;;;;1.92;1.83;;;23.00;99.90;;;;;;5045558;28;20256;-76
2022/08/06 03:30:05;;;;;;;2.10;2.00;;;23.00;99.90;;;;;;5046238;28;20201;-75
2022/08/06 03:32:34;;;;;;;1.95;1.85;;;23.00;99.90;;;;;;5045399;28;20228;-76
2022/08/06 03:35:05;;;;;;;1.90;1.80;;;23.00;99.90;;;;;;5051323;28;20199;-75
2022/08/06 03:37:34;;;;;;;2.00;1.90;;;23.00;99.90;;;;;;5050030;28;20228;-76
2022/08/06 03:40:03;;;;;;;1.67;1.58;;;23.10;99.90;;;;;;5045279;28;20195;-76
2022/08/06 03:42:30;;;;;;;1.88;1.77;;;23.10;99.90;;;;;;5046645;28;20568;-75
2022/08/06 03:44:57;;;;;;;1.70;1.60;;;23.10;99.90;;;;;;5053996;28;20591;-75
2022/08/06 03:47:32;;;;;;;2.28;1.90;;;23.10;99.90;;;;;;5053865;28;20227;-76
2022/08/06 03:50:06;;;;;;;1.80;1.70;;;23.10;99.90;;;;;;5048887;28;20202;-76
2022/08/06 03:52:39;;;;;;;1.80;1.70;;;23.10;99.90;;;;;;5048473;28;20223;-75
2022/08/06 03:55:10;;;;;;;1.80;1.70;;;23.00;99.90;;;;;;5053564;28;20191;-76
2022/08/06 03:57:41;;;;;;;2.42;1.70;;;23.00;99.90;;;;;;5053421;28;20606;-75
2022/08/06 04:00:10;;;;;;;1.90;1.80;;;23.00;99.90;;;;;;5055768;28;20222;-76
2022/08/06 04:02:40;;;;;;;1.95;1.85;;;22.90;99.90;;;;;;5049657;28;20337;-76
2022/08/06 04:05:12;;;;;;;2.75;1.88;;;22.90;99.90;;;;;;5055145;28;20213;-76
2022/08/06 04:07:40;;;;;;;2.08;1.95;;;22.90;99.90;;;;;;5045215;28;20693;-75
2022/08/06 04:10:09;;;;;;;1.63;1.52;;;22.90;99.90;;;;;;5054466;28;20202;-76
2022/08/06 04:12:36;;;;;;;2.95;1.92;;;23.00;99.90;;;;;;5051848;28;20707;-76
2022/08/06 04:15:05;;;;;;;1.88;1.77;;;22.70;99.90;;;;;;5053065;28;20195;-77
2022/08/06 04:17:33;;;;;;;1.60;1.50;;;22.60;99.90;;;;;;5054664;28;20607;-76
2022/08/06 04:20:01;;;;;;;1.90;1.80;;;22.50;99.90;;;;;;5055396;28;20203;-77
2022/08/06 04:22:30;;;;;;;2.00;1.80;;;22.30;99.90;;;;;;5055891;28;20309;-76
2022/08/06 04:24:57;;;;;;;1.95;1.85;;;22.20;99.90;;;;;;5052064;28;20259;-77
2022/08/06 04:27:27;;;;;;;2.17;2.05;;;22.20;99.90;;;;;;5050095;28;20229;-77
2022/08/06 04:29:57;;;;;;;2.30;2.10;;;22.20;99.90;;;;;;5049743;28;20187;-77
2022/08/06 04:32:26;;;;;;;1.90;1.80;;;22.20;99.90;;;;;;5049131;28;20223;-77
2022/08/06 04:34:54;;;;;;;2.08;1.88;;;22.20;99.90;;;;;;5050691;28;20203;-76
2022/08/06 04:37:21;;;;;;;1.92;1.58;;;22.10;99.90;;;;;;5050421;28;20225;-75
2022/08/06 04:39:50;;;;;;;1.90;1.80;;;22.00;99.90;;;;;;5049366;28;20285;-76
2022/08/06 04:42:18;;;;;;;2.00;1.90;;;22.10;99.90;;;;;;5050925;28;20728;-76
2022/08/06 04:44:46;;;;;;;1.67;1.58;;;22.40;99.90;;;;;;5053613;28;20190;-77
2022/08/06 04:47:13;;;;;;;2.15;1.95;;;22.70;99.90;;;;;;5047706;28;20288;-76
2022/08/06 04:49:41;;;;;;;1.60;1.50;;;22.80;99.90;;;;;;5048184;28;20207;-76
2022/08/06 04:52:08;;;;;;;1.80;1.70;;;22.90;99.90;;;;;;5050537;28;20226;-76
2022/08/06 04:54:35;;;;;;;1.58;1.48;;;23.00;99.90;;;;;;5051343;28;20202;-77
2022/08/06 04:57:04;;;;;;;1.60;1.50;;;23.00;99.90;;;;;;5051753;28;20194;-76
2022/08/06 04:59:31;;;;;;;1.90;1.80;;;23.10;99.90;;;;;;5050649;28;20203;-77
2022/08/06 05:01:58;;;;;;;1.70;1.60;;;23.10;99.90;;;;;;5048476;28;20639;-77
2022/08/06 05:04:26;;;;;;;1.38;1.30;;;23.20;99.90;;;;;;5050565;28;20207;-76
2022/08/06 05:06:58;;;;;;;1.70;1.60;;;23.30;99.90;;;;;;5048352;28;20219;-76
2022/08/06 05:09:27;;;;;;;1.63;1.52;;;23.50;99.90;;;;;;5054691;28;20198;-76
2022/08/06 05:12:06;;;;;;;1.70;1.60;;;23.70;99.90;;;;;;5052839;28;20222;-77
2022/08/06 05:14:39;;;;;;;1.65;1.55;;;23.90;99.90;;;;;;5054132;28;20190;-77
2022/08/06 05:17:10;;;;;;;1.92;1.70;;;23.90;99.90;;;;;;5051488;28;20183;-77
2022/08/06 05:19:44;;;;;;;1.58;1.48;;;23.90;99.90;;;;;;5053114;28;20214;-77
2022/08/06 05:22:14;;;;;;;1.40;1.40;;;23.90;99.90;;;;;;5046839;28;20691;-77
2022/08/06 05:24:42;;;;;;;1.85;1.75;;;23.90;99.90;;;;;;5055080;28;20661;-76
2022/08/06 05:27:11;;;;;;;2.08;1.60;;;23.70;99.90;;;;;;5051242;28;20219;-76
2022/08/06 05:29:40;;;;;;;2.03;1.92;;;23.70;99.90;;;;;;5052590;28;20190;-77
2022/08/06 05:32:08;;;;;;;2.05;1.70;;;23.50;99.90;;;;;;5055197;28;20226;-76
2022/08/06 05:34:35;;;;;;;1.83;1.73;;;23.40;99.90;;;;;;5053376;28;20198;-76
2022/08/06 05:37:03;;;;;;;2.40;2.00;;;23.20;99.90;;;;;;5050425;28;20201;-76
2022/08/06 05:39:30;;;;;;;2.05;1.88;;;23.00;99.90;;;;;;5050252;28;20556;-76
2022/08/06 05:41:57;;;;;;;2.13;2.03;;;23.10;99.90;;;;;;5052255;28;20981;-76
2022/08/06 05:44:24;;;;;;;1.95;1.85;;;23.30;99.90;;;;;;5052155;28;20194;-75
2022/08/06 05:46:55;;;;;;;2.13;2.03;;;23.60;99.90;;;;;;5052309;28;20195;-77
2022/08/06 05:49:37;;;;;;;5.70;2.40;;;23.40;99.90;;;;;;5057954;28;20281;-77
2022/08/06 05:52:11;;;;;;;2.95;1.90;;;23.20;99.90;;;;;;5056594;28;20273;-75
2022/08/06 05:54:45;;;;;;;2.20;2.10;;;23.10;99.90;;;;;;5060221;28;20661;-75
2022/08/06 05:57:15;;;;;;;3.15;2.15;;;23.20;99.90;;;;;;5053290;28;20592;-76
2022/08/06 05:59:48;;;;;;;2.13;2.03;;;23.10;99.90;;;;;;5063556;28;20653;-75
2022/08/06 06:02:19;;;;;;;2.30;2.20;;;23.00;99.90;;;;;;5055139;28;20219;-76
2022/08/06 06:04:47;;;;;;;2.33;2.13;;;23.00;99.90;;;;;;5049038;28;20198;-76
2022/08/06 06:07:15;;;;;;;2.33;2.13;;;23.00;99.90;;;;;;5058720;28;20214;-76
2022/08/06 06:09:43;;;;;;;2.17;1.95;;;23.10;99.90;;;;;;5050387;28;20286;-77
2022/08/06 06:12:11;;;;;;;2.08;1.98;;;23.30;99.90;;;;;;5059578;28;20222;-76
2022/08/06 06:14:42;;;;;;;2.33;2.13;;;23.40;99.90;;;;;;5059789;28;20206;-75
2022/08/06 06:17:41;;;;;;;2.40;2.30;;;23.40;99.90;;;;;;5062022;28;20610;-74
2022/08/06 06:20:17;;;;;;;2.15;2.00;;;23.10;99.90;;;;;;5053942;28;20198;-75
2022/08/06 06:22:54;;;;;;;2.38;2.28;;;23.00;99.90;;;;;;5054491;28;20211;-74
2022/08/06 06:25:26;;;;;;;2.30;2.20;;;22.80;99.90;;;;;;5049321;28;20192;-75
2022/08/06 06:28:01;;;;;;;2.28;2.08;;;22.80;99.90;;;;;;5052748;28;20230;-75
2022/08/06 06:30:40;;;;;;;2.20;2.10;;;22.70;99.90;;;;;;5052205;28;20203;-76
2022/08/06 06:33:16;;;;;;;2.08;1.92;;;22.80;99.90;;;;;;5053746;28;20230;-76
2022/08/06 06:35:51;;;;;;;2.33;2.13;;;22.80;99.90;;;;;;5049987;28;20201;-76
2022/08/06 06:38:39;;;;;;;2.30;2.17;;;22.80;99.90;;;;;;5058379;28;20286;-76
2022/08/06 06:41:13;;;;;;;2.15;2.00;;;22.80;99.90;;;;;;5077343;22;20225;-76
2022/08/06 06:43:45;;;;;;;2.10;1.90;;;22.90;99.90;;;;;;5047425;28;20581;-76
2022/08/06 06:46:21;;;;;;;1.95;1.85;;;23.00;99.90;;;;;;5049038;28;20545;-76
2022/08/06 06:48:52;;;;;;;1.90;1.80;;;23.10;99.90;;;;;;5051753;28;20218;-76
2022/08/06 06:51:25;;;;;;;1.90;1.80;;;23.20;99.90;;;;;;5035507;28;20303;-77
2022/08/06 06:53:54;;;;;;;2.00;1.75;;;23.40;99.90;;;;;;5025623;28;20215;-76
2022/08/06 06:56:25;;;;;;;1.98;1.88;;;23.30;99.90;;;;;;5026420;28;20294;-76
2022/08/06 06:58:56;;;;;;;2.28;2.10;;;23.20;99.90;;;;;;5026882;28;20211;-77
2022/08/06 07:01:25;;;;;;;2.40;2.20;;;23.20;99.90;;;;;;5025374;28;20234;-76
2022/08/06 07:03:55;;;;;;;1.98;1.88;;;23.30;99.90;;;;;;5009571;28;20220;-77
2022/08/06 07:06:23;;;;;;;1.90;1.80;;;23.40;99.90;;;;;;5009126;28;20200;-78
2022/08/06 07:08:51;;;;;;;2.00;1.90;;;23.60;99.90;;;;;;5027711;28;20216;-78
2022/08/06 07:11:23;;;;;;;1.85;1.75;;;23.80;99.90;;;;;;5027916;28;20504;-79
2022/08/06 07:13:52;;;;;;;1.75;1.65;;;24.00;99.90;;;;;;5029697;28;20491;-79
2022/08/06 07:16:23;;;;;;;2.15;2.00;;;24.20;99.90;;;;;;5025016;28;20257;-78
2022/08/06 07:18:52;;;;;;;2.58;2.00;;;24.40;99.90;;;;;;5028590;28;20244;-78
2022/08/06 07:21:22;;;;;;;2.40;2.20;;;24.50;99.90;;;;;;5025554;28;20231;-79
2022/08/06 07:23:52;;;;;;;2.38;2.28;;;24.70;99.90;;;;;;5026339;28;20211;-78
2022/08/06 07:26:21;;;;;;;2.35;2.20;;;24.60;99.90;;;;;;5023737;28;20230;-78
2022/08/06 07:28:51;;;;;;;2.60;2.40;;;24.40;99.90;;;;;;5010038;28;20219;-78
2022/08/06 07:31:24;;;;;;;2.47;2.30;;;24.30;99.90;;;;;;5011138;28;20234;-77
2022/08/06 07:33:52;;;;;;;2.50;2.30;;;24.80;99.90;;;;;;5005968;28;20775;-78
2022/08/06 07:36:24;;;;;;;2.70;2.50;;;25.20;99.90;;;;;;5010890;28;20196;-78
2022/08/06 07:38:56;;;;;;;2.90;2.38;;;25.40;99.90;;;;;;5004718;28;20226;-79
2022/08/06 07:41:24;;;;;;;2.65;2.45;;;25.60;99.90;;;;;;5007721;28;20231;-79
2022/08/06 07:43:54;;;;;;;2.72;2.28;;;25.70;99.90;;;;;;5005112;28;20219;-79
2022/08/06 07:46:25;;;;;;;2.65;2.50;;;25.90;99.90;;;;;;5006579;28;20204;-78
2022/08/06 07:48:56;;;;;;;2.50;2.33;;;26.10;99.90;;;;;;5012804;28;20251;-78
2022/08/06 07:51:29;;;;;;;2.83;2.63;;;26.20;99.90;;;;;;5012405;28;20226;-78
2022/08/06 07:53:57;;;;;;;3.40;2.40;;;26.10;99.90;;;;;;5013142;28;20243;-78
2022/08/06 07:56:26;;;;;;;2.78;2.58;;;25.80;99.90;;;;;;5008547;28;20210;-76
2022/08/06 07:58:55;;;;;;;2.88;2.67;;;25.50;99.90;;;;;;5005581;28;20215;-77
2022/08/06 08:01:24;;;;;;;3.55;2.47;;;25.80;99.90;;;;;;5020400;28;20222;-77
2022/08/06 08:06:38;;;;;;;2.88;2.67;;;26.50;99.90;;;;;;5011888;28;20203;-76
2022/08/06 08:09:08;;;;;;;3.05;2.85;;;26.90;99.90;;;;;;5012278;28;20220;-76
2022/08/06 08:11:40;;;;;;;3.00;2.80;;;26.80;99.90;;;;;;5016751;28;20226;-75
2022/08/06 08:14:09;;;;;;;3.97;2.75;;;26.80;99.90;;;;;;5008232;28;20216;-77
2022/08/06 08:16:37;;;;;;;3.00;2.80;;;26.70;99.90;;;;;;5004972;28;20208;-77
2022/08/06 08:19:20;;;;;;;3.42;2.53;;;26.40;99.90;;;;;;5006805;28;20211;-79
2022/08/06 08:21:48;;;;;;;2.40;2.30;;;26.20;99.90;;;;;;5007988;28;20597;-77
2022/08/06 08:24:16;;;;;;;2.83;2.63;;;26.40;99.90;;;;;;5009449;28;20193;-78
2022/08/06 08:26:43;;;;;;;2.65;2.45;;;26.70;99.90;;;;;;5003147;28;20228;-79
2022/08/06 08:29:11;;;;;;;2.97;2.58;;;26.80;99.90;;;;;;4999741;28;20220;-78
2022/08/06 08:31:38;;;;;;;3.03;2.72;;;26.80;99.90;;;;;;5015330;28;20619;-78
2022/08/06 08:34:06;;;;;;;3.47;3.17;;;26.90;99.90;;;;;;5015056;28;20215;-78
2022/08/06 08:36:34;;;;;;;3.10;2.80;;;27.10;99.90;;;;;;5017275;28;20196;-77
2022/08/06 08:39:02;;;;;;;2.70;2.50;;;27.30;99.90;;;;;;5016200;28;20222;-79
2022/08/06 08:41:35;;;;;;;3.42;2.67;;;27.00;99.90;;;;;;5021409;28;20224;-79
2022/08/06 08:44:05;;;;;;;2.60;2.40;;;26.90;99.90;;;;;;5022736;28;20243;-79
2022/08/06 08:46:34;;;;;;;2.85;2.50;;;27.20;99.90;;;;;;5018632;28;20204;-79
2022/08/06 08:49:04;;;;;;;3.00;2.80;;;27.40;99.90;;;;;;5021492;28;20227;-78
2022/08/06 08:51:34;;;;;;;2.92;2.72;;;27.50;99.90;;;;;;5021748;28;20215;-79
2022/08/06 08:54:06;;;;;;;3.13;2.88;;;27.80;99.90;;;;;;5021281;28;20230;-78
2022/08/06 08:56:34;;;;;;;2.60;2.40;;;27.90;99.90;;;;;;5018555;28;20477;-79
2022/08/06 08:59:02;;;;;;;2.90;2.70;;;28.20;99.90;;;;;;5018646;28;20226;-79
2022/08/06 09:01:29;;;;;;;5.45;2.80;;;28.20;99.90;;;;;;5018642;28;20220;-78
2022/08/06 09:03:57;;;;;;;3.47;2.45;;;28.30;99.90;;;;;;5016902;28;20705;-78
2022/08/06 09:06:24;;;;;;;2.80;2.60;;;28.50;99.90;;;;;;5024553;28;20192;-81
2022/08/06 09:08:52;;;;;;;2.75;2.55;;;28.30;99.90;;;;;;5017243;28;20216;-79
2022/08/06 09:11:21;;;;;;;4.22;2.42;;;28.20;99.90;;;;;;5018163;28;20223;-79
2022/08/06 09:13:48;;;;;;;2.72;2.53;;;28.20;99.90;;;;;;5013544;28;20220;-79
2022/08/06 09:16:15;;;;;;;2.72;2.53;;;28.30;99.90;;;;;;5019699;28;20668;-79
2022/08/06 09:18:42;;;;;;;2.67;2.47;;;28.10;99.90;;;;;;5018777;28;20224;-78
2022/08/06 09:21:10;;;;;;;2.90;2.70;;;27.80;99.90;;;;;;5012685;28;20222;-79
2022/08/06 09:23:39;;;;;;;2.60;2.40;;;27.70;99.90;;;;;;5018509;28;20231;-78
2022/08/06 09:26:07;;;;;;;3.22;2.42;;;27.70;99.90;;;;;;5022435;28;20609;-80
2022/08/06 09:28:37;;;;;;;2.05;1.95;;;27.80;99.90;;;;;;5018676;28;20267;-82
2022/08/06 09:31:07;;;;;;;2.15;2.03;;;28.00;99.90;;;;;;5018701;28;20709;-78
2022/08/06 09:33:37;;;;;;;2.80;2.60;;;28.10;99.90;;;;;;5018706;28;20251;-79
2022/08/06 09:36:06;;;;;;;2.40;2.20;;;28.30;99.90;;;;;;5022514;28;20208;-78
2022/08/06 09:38:46;;;;;;;2.78;2.22;;;28.10;99.90;;;;;;5023170;28;20217;-79
2022/08/06 09:41:14;;;;;;;2.40;2.20;;;28.20;99.90;;;;;;5024744;28;20236;-79
2022/08/06 09:43:44;;;;;;;2.13;1.98;;;28.10;99.90;;;;;;5017496;28;20220;-79
2022/08/06 09:46:11;;;;;;;2.30;2.20;;;28.20;99.90;;;;;;5018044;28;20200;-78
2022/08/06 09:48:56;;;;;;;2.65;2.45;;;28.30;99.90;;;;;;5020014;28;20216;-78
2022/08/06 09:51:23;;;;;;;2.65;2.47;;;28.30;99.90;;;;;;5019361;28;20230;-81
2022/08/06 09:53:54;;;;;;;2.83;2.63;;;28.30;99.90;;;;;;5018957;28;20223;-80
2022/08/06 09:56:21;;;;;;;2.60;2.40;;;28.70;99.90;;;;;;5014430;28;20577;-79
2022/08/06 09:58:50;;;;;;;4.25;2.85;;;28.80;99.90;;;;;;5015542;28;20766;-79
2022/08/06 10:01:20;;;;;;;2.53;2.40;;;29.00;99.90;;;;;;5018138;28;20234;-81
2022/08/06 10:03:47;;;;;;;2.38;2.17;;;28.80;99.90;;;;;;5012018;28;20219;-79
2022/08/06 10:06:20;;;;;;;2.28;2.17;;;28.80;99.90;;;;;;5021296;28;20650;-78
2022/08/06 10:08:48;;;;;;;2.00;1.90;;;29.00;99.90;;;;;;5015100;28;20223;-78
2022/08/06 10:11:15;;;;;;;2.15;2.05;;;29.20;99.90;;;;;;5023166;28;20220;-79
2022/08/06 10:13:49;;;;;;;2.10;1.90;;;29.40;99.90;;;;;;5022268;28;20319;-80
2022/08/06 10:16:19;;;;;;;3.40;2.30;;;29.20;99.90;;;;;;5018154;28;20223;-79
2022/08/06 10:18:48;;;;;;;2.28;2.17;;;28.80;99.90;;;;;;5024557;28;20216;-79
2022/08/06 10:21:18;;;;;;;2.00;1.90;;;28.80;99.90;;;;;;5022587;28;20221;-79
2022/08/06 10:23:48;;;;;;;2.20;2.00;;;28.70;99.90;;;;;;5023358;28;20728;-80
2022/08/06 10:26:18;;;;;;;2.10;2.00;;;28.40;99.90;;;;;;5022886;28;20250;-78
2022/08/06 10:28:48;;;;;;;3.05;2.00;;;28.30;99.90;;;;;;5019399;28;20282;-78
2022/08/06 10:31:17;;;;;;;2.20;2.10;;;28.10;99.90;;;;;;5022333;28;20712;-79
2022/08/06 10:33:50;;;;;;;2.03;1.92;;;27.90;99.90;;;;;;5025852;28;20234;-78
2022/08/06 10:36:21;;;;;;;2.13;1.98;;;27.70;99.90;;;;;;5013922;28;20201;-79
2022/08/06 10:38:52;;;;;;;1.95;1.85;;;27.60;99.90;;;;;;5015483;28;20696;-79
2022/08/06 10:41:19;;;;;;;2.05;1.95;;;27.50;99.90;;;;;;5013209;28;20239;-79
2022/08/06 10:43:47;;;;;;;2.00;1.90;;;27.50;99.90;;;;;;5015729;28;20216;-79
2022/08/06 10:46:16;;;;;;;1.90;1.80;;;27.50;99.90;;;;;;5024864;28;20677;-79
2022/08/06 10:48:46;;;;;;;2.50;2.30;;;27.70;99.90;;;;;;5021640;28;20238;-81
2022/08/06 10:51:14;;;;;;;2.30;1.90;;;27.90;99.90;;;;;;5020271;28;20219;-79
2022/08/06 10:53:44;;;;;;;2.10;2.00;;;27.80;99.90;;;;;;5020402;28;20220;-80
2022/08/06 10:56:14;;;;;;;1.95;1.85;;;27.80;99.90;;;;;;5020797;28;20201;-81
2022/08/06 10:58:42;;;;;;;2.60;2.40;;;27.70;99.90;;;;;;5019150;28;20227;-80
2022/08/06 11:01:15;;;;;;;3.25;1.75;;;27.60;99.90;;;;;;5022321;28;20326;-79
2022/08/06 11:03:55;;;;;;;2.30;2.08;;;27.40;99.90;;;;;;5018142;28;20228;-81
2022/08/06 11:06:46;;;;;;;2.17;1.98;;;27.30;99.90;;;;;;5016506;28;20231;-81
2022/08/06 11:09:32;;;;;;;2.50;2.30;;;27.20;99.90;;;;;;5015534;28;20236;-78
2022/08/06 11:12:23;;;;;;;3.25;2.35;;;27.10;99.90;;;;;;5021135;28;20200;-79
2022/08/06 11:14:51;;;;;;;2.92;2.25;;;26.90;99.90;;;;;;5022928;28;20204;-79
2022/08/06 11:17:19;;;;;;;2.13;1.92;;;26.70;99.90;;;;;;5020277;28;20215;-78
2022/08/06 11:19:49;;;;;;;2.10;2.00;;;27.20;99.90;;;;;;5021911;28;20221;-78
2022/08/06 11:22:36;;;;;;;1.90;1.80;;;27.50;99.90;;;;;;5016911;28;20216;-78
2022/08/06 11:25:04;;;;;;;2.03;1.83;;;27.80;99.90;;;;;;5019023;28;20206;-79
2022/08/06 11:27:52;;;;;;;2.65;2.00;;;28.00;99.90;;;;;;5021511;28;20212;-80
2022/08/06 11:30:20;;;;;;;2.45;2.30;;;28.00;99.90;;;;;;5015078;28;20307;-79
2022/08/06 11:32:49;;;;;;;2.55;2.35;;;27.60;99.90;;;;;;5014337;28;20466;-79
2022/08/06 11:35:45;;;;;;;2.45;2.25;;;27.20;99.90;;;;;;5015205;28;20282;-79
2022/08/06 11:38:14;;;;;;;2.10;2.00;;;27.00;99.90;;;;;;5020235;28;20312;-78
2022/08/06 11:40:58;;;;;;;2.10;1.90;;;26.90;99.90;;;;;;5020888;28;20223;-78
2022/08/06 11:43:47;;;;;;;2.20;2.00;;;26.90;99.90;;;;;;5016898;28;20215;-78
2022/08/06 11:46:25;;;;;;;1.95;1.85;;;26.80;99.90;;;;;;5022502;28;20206;-78
2022/08/06 11:49:18;;;;;;;1.90;1.80;;;26.90;99.90;;;;;;5014231;28;20282;-78
2022/08/06 11:51:48;;;;;;;2.08;1.90;;;27.30;99.90;;;;;;5006369;28;20216;-81
2022/08/06 11:54:17;;;;;;;2.08;1.98;;;27.50;99.90;;;;;;5025650;28;20306;-81
2022/08/06 11:57:19;;;;;;;2.90;2.20;;;27.50;99.90;;;;;;5019424;28;20287;-78
2022/08/06 12:00:01;;;;;;;4.35;2.10;;;27.80;99.90;;;;;;5021793;28;20226;-78
2022/08/06 12:02:58;;;;;;;3.13;2.40;;;28.00;99.90;;;;;;5014134;28;20550;-78
2022/08/06 12:05:53;;;;;;;2.33;2.13;;;28.40;99.90;;;;;;5013981;28;20196;-79
2022/08/06 12:08:29;;;;;;;3.67;2.25;;;28.60;99.90;;;;;;5015573;28;20216;-79
2022/08/06 12:11:27;;;;;;;2.20;2.10;;;28.90;99.90;;;;;;5018103;28;20326;-80
2022/08/06 12:13:55;;;;;;;2.28;2.17;;;29.40;99.90;;;;;;5013534;28;20582;-79
2022/08/06 12:16:34;;;;;;;2.65;2.45;;;29.60;99.90;;;;;;5019521;28;20210;-82
2022/08/06 12:19:03;;;;;;;3.05;2.20;;;29.70;99.90;;;;;;5018671;28;20215;-80
2022/08/06 12:21:31;;;;;;;2.63;2.42;;;29.90;99.90;;;;;;5019696;28;20738;-79
2022/08/06 12:24:00;;;;;;;2.35;2.20;;;30.10;99.90;;;;;;5022020;28;20218;-78
2022/08/06 12:26:33;;;;;;;2.88;2.08;;;29.80;99.90;;;;;;5021417;28;20255;-79
2022/08/06 12:29:09;;;;;;;2.38;2.17;;;29.70;99.90;;;;;;5018618;28;20699;-79
2022/08/06 12:31:39;;;;;;;2.47;2.28;;;29.70;99.90;;;;;;5015339;28;21569;-79
2022/08/06 12:34:06;;;;;;;2.90;2.17;;;29.40;99.90;;;;;;5018850;28;20219;-80
2022/08/06 12:36:36;;;;;;;1.77;1.67;;;29.10;99.90;;;;;;5018107;28;20291;-80
2022/08/06 12:39:07;;;;;;;1.80;1.70;;;29.10;99.90;;;;;;5022792;28;20303;-81
2022/08/06 12:41:37;;;;;;;2.00;1.90;;;29.50;99.90;;;;;;5061508;22;20226;-78
2022/08/06 12:44:04;;;;;;;3.13;1.92;;;29.70;99.90;;;;;;5047250;28;20704;-76
2022/08/06 12:46:31;;;;;;;2.35;2.15;;;30.00;99.90;;;;;;5051234;28;20195;-76
2022/08/06 12:48:59;;;;;;;2.67;2.13;;;30.20;99.90;;;;;;5045954;28;20225;-76
2022/08/06 12:51:27;;;;;;;2.42;2.22;;;30.10;99.90;;;;;;5051506;28;20703;-76
2022/08/06 12:53:56;;;;;;;2.15;1.98;;;29.90;99.90;;;;;;5065341;28;20294;-77
2022/08/06 12:56:27;;;;;;;1.67;1.58;;;29.50;99.90;;;;;;5053644;28;20217;-76
2022/08/06 12:58:55;;;;;;;2.38;2.17;;;29.30;99.90;;;;;;5047805;28;20222;-76
2022/08/06 13:01:24;;;;;;;1.80;1.67;;;29.20;99.90;;;;;;5053424;28;20214;-76
2022/08/06 13:03:55;;;;;;;1.98;1.80;;;29.00;99.90;;;;;;5052681;28;20219;-76
2022/08/06 13:06:26;;;;;;;1.88;1.77;;;28.90;99.90;;;;;;5053113;28;20195;-76
2022/08/06 13:08:54;;;;;;;1.73;1.63;;;28.90;99.90;;;;;;5044129;28;20214;-75
2022/08/06 13:11:31;;;;;;;1.67;1.58;;;29.00;99.90;;;;;;5050439;28;20210;-76